createdAt,value
2023-05-09T00:01:46.597Z,99000.50
2023-05-09T00:03:49.659Z,98998.03
2023-05-09T00:05:51.529Z,98994.72
2023-05-09T00:07:53.140Z,98996.97
2023-05-09T00:09:59.686Z,99000.03
2023-05-09T00:12:01.391Z,98992.03
2023-05-09T00:14:03.315Z,98991.19
2023-05-09T00:16:09.837Z,98995.94
2023-05-09T00:18:11.425Z,98993.44
2023-05-09T00:20:14.666Z,98983.81
2023-05-09T00:22:21.461Z,98989.63
2023-05-09T00:24:24.027Z,98983.28
2023-05-09T00:26:26.283Z,98987.16
2023-05-09T00:28:27.746Z,98980.28
2023-05-09T00:30:29.327Z,98983.34
2023-05-09T00:32:32.104Z,98986.94
2023-05-09T00:34:33.560Z,98989.16
2023-05-09T00:36:40.596Z,98969.59
2023-05-09T00:38:42.104Z,98981.22
2023-05-09T00:40:45.978Z,98974.06
2023-05-09T00:42:47.888Z,98979.84
2023-05-09T00:44:49.755Z,98971.88
2023-05-09T00:46:51.243Z,98978.50
2023-05-09T00:49:04.886Z,98972.97
2023-05-09T00:51:07.388Z,98972.47
2023-05-09T00:53:09.550Z,98966.09
2023-05-09T00:55:11.778Z,98965.59
2023-05-09T00:57:14.242Z,98970.00
2023-05-09T00:59:17.563Z,98961.16
2023-05-09T01:01:22.405Z,98955.91
2023-05-09T01:03:28.619Z,98958.69
2023-05-09T01:05:58.557Z,98950.97
2023-05-09T01:08:21.578Z,98953.50
2023-05-09T01:10:39.470Z,98957.69
2023-05-09T01:12:58.827Z,98958.78
2023-05-09T01:15:26.808Z,98949.44
2023-05-09T01:17:43.964Z,98951.38
2023-05-09T01:20:02.463Z,98945.88
2023-05-09T01:22:08.847Z,98945.03
2023-05-09T01:24:27.057Z,98951.13
2023-05-09T01:26:45.325Z,98951.13
2023-05-09T01:29:05.064Z,98938.75
2023-05-09T01:31:09.729Z,98941.81
2023-05-09T01:33:18.235Z,98938.22
2023-05-09T01:35:23.774Z,98932.69
2023-05-09T01:37:35.550Z,98936.84
2023-05-09T01:39:41.351Z,98928.59
2023-05-09T01:41:42.894Z,98926.91
2023-05-09T01:43:47.229Z,98937.97
2023-05-09T01:45:51.256Z,98927.75
2023-05-09T01:47:53.987Z,98926.91
2023-05-09T01:50:01.270Z,98924.16
2023-05-09T01:52:11.287Z,98925.28
2023-05-09T01:54:14.319Z,98920.88
2023-05-09T01:56:17.225Z,98925.56
2023-05-09T01:58:22.093Z,98924.78
2023-05-09T02:00:27.965Z,98916.50
2023-05-09T02:02:29.637Z,98917.91
2023-05-09T02:04:32.796Z,98922.59
2023-05-09T02:06:36.156Z,98922.84
2023-05-09T02:08:39.845Z,98930.34
2023-05-09T02:10:42.564Z,98925.09
2023-05-09T02:12:46.412Z,98926.75
2023-05-09T02:14:48.028Z,98920.16
2023-05-09T02:16:50.257Z,98920.97
2023-05-09T02:18:52.233Z,98931.50
2023-05-09T02:20:53.783Z,98932.06
2023-05-09T02:22:55.375Z,98932.06
2023-05-09T02:24:57.234Z,98933.72
2023-05-09T02:26:58.877Z,98933.16
2023-05-09T02:29:02.617Z,98935.91
2023-05-09T02:31:07.033Z,98929.06
2023-05-09T02:33:11.759Z,98937.06
2023-05-09T02:35:17.762Z,98929.34
2023-05-09T02:37:21.347Z,98921.06
2023-05-09T02:39:27.880Z,98934.03
2023-05-09T02:41:31.123Z,98928.81
2023-05-09T02:43:32.845Z,98928.81
2023-05-09T02:45:34.598Z,98920.56
2023-05-09T02:47:38.301Z,98922.78
2023-05-09T02:49:40.339Z,98920.03
2023-05-09T02:51:43.155Z,98926.94
2023-05-09T02:53:44.981Z,98920.59
2023-05-09T02:55:47.204Z,98916.19
2023-05-09T02:57:51.989Z,98925.03
2023-05-09T03:00:04.613Z,98915.13
2023-05-09T03:02:06.526Z,98921.75
2023-05-09T03:04:08.344Z,98912.63
2023-05-09T03:06:14.161Z,98918.44
2023-05-09T03:08:16.263Z,98912.13
2023-05-09T03:10:18.759Z,98916.00
2023-05-09T03:12:24.963Z,98921.78
2023-05-09T03:14:29.373Z,98913.81
2023-05-09T03:16:31.267Z,98922.34
2023-05-09T03:18:34.044Z,98913.56
2023-05-09T03:20:36.369Z,98911.09
2023-05-09T03:22:38.633Z,98907.50
2023-05-09T03:24:43.768Z,98904.75
2023-05-09T03:26:45.369Z,98906.69
2023-05-09T03:28:47.170Z,98906.97
2023-05-09T03:30:50.327Z,98906.97
2023-05-09T03:32:54.708Z,98906.47
2023-05-09T03:34:57.250Z,98904.81
2023-05-09T03:37:01.570Z,98906.47
2023-05-09T03:39:04.225Z,98903.13
2023-05-09T03:41:05.796Z,98897.09
2023-05-09T03:43:09.208Z,98893.81
2023-05-09T03:45:12.246Z,98892.16
2023-05-09T03:47:14.179Z,98890.53
2023-05-09T03:49:15.674Z,98890.00
2023-05-09T03:51:18.402Z,98893.84
2023-05-09T03:53:20.728Z,98885.88
2023-05-09T03:55:27.531Z,98890.03
2023-05-09T03:57:29.162Z,98899.94
2023-05-09T03:59:32.213Z,98890.84
2023-05-09T04:01:34.596Z,98895.56
2023-05-09T04:03:38.261Z,98896.63
2023-05-09T04:05:40.601Z,98901.06
2023-05-09T04:07:47.544Z,98904.88
2023-05-09T04:09:50.546Z,98901.59
2023-05-09T04:11:52.231Z,98911.25
2023-05-09T04:13:54.448Z,98910.72
2023-05-09T04:16:01.874Z,98909.88
2023-05-09T04:18:08.855Z,98911.50
2023-05-09T04:20:11.588Z,98915.38
2023-05-09T04:22:14.306Z,98909.88
2023-05-09T04:24:16.106Z,98909.88
2023-05-09T04:26:24.448Z,98902.69
2023-05-09T04:28:28.276Z,98901.59
2023-05-09T04:30:31.483Z,98899.94
2023-05-09T04:32:33.671Z,98901.06
2023-05-09T04:34:35.767Z,98900.25
2023-05-09T04:36:43.522Z,98907.38
2023-05-09T04:38:45.172Z,98902.19
2023-05-09T04:40:49.942Z,98903.84
2023-05-09T04:42:51.660Z,98905.47
2023-05-09T04:44:55.925Z,98906.28
2023-05-09T04:46:58.184Z,98906.00
2023-05-09T04:48:59.712Z,98903.00
2023-05-09T04:51:01.653Z,98914.84
2023-05-09T04:53:03.263Z,98910.97
2023-05-09T04:55:05.278Z,98909.03
2023-05-09T04:57:18.038Z,98907.09
2023-05-09T04:59:23.357Z,98914.81
2023-05-09T05:01:26.615Z,98912.06
2023-05-09T05:03:35.478Z,98904.31
2023-05-09T05:05:37.993Z,98897.41
2023-05-09T05:07:40.546Z,98897.63
2023-05-09T05:09:42.608Z,98903.41
2023-05-09T05:11:57.159Z,98892.06
2023-05-09T05:14:00.565Z,98902.81
2023-05-09T05:16:02.295Z,98883.22
2023-05-09T05:18:04.234Z,98890.63
2023-05-09T05:20:12.003Z,98896.97
2023-05-09T05:22:18.467Z,98903.25
2023-05-09T05:24:21.331Z,98899.09
2023-05-09T05:26:28.380Z,98899.63
2023-05-09T05:28:30.391Z,98893.84
2023-05-09T05:30:35.459Z,98897.94
2023-05-09T05:32:37.475Z,98891.03
2023-05-09T05:34:39.689Z,98895.94
2023-05-09T05:36:41.254Z,98886.56
2023-05-09T05:38:42.884Z,98889.03
2023-05-09T05:40:45.652Z,98884.06
2023-05-09T05:42:47.336Z,98887.03
2023-05-09T05:44:49.014Z,98883.72
2023-05-09T05:46:54.914Z,98881.47
2023-05-09T05:48:59.359Z,98880.63
2023-05-09T05:51:01.334Z,98879.44
2023-05-09T05:53:06.514Z,98881.03
2023-05-09T05:55:12.133Z,98878.72
2023-05-09T05:57:14.117Z,98878.91
2023-05-09T05:59:25.046Z,98879.09
2023-05-09T06:01:26.993Z,98889.81
2023-05-09T06:03:33.670Z,98873.69
2023-05-09T06:05:42.254Z,98878.25
2023-05-09T06:07:46.961Z,98874.31
2023-05-09T06:09:48.589Z,98872.00
2023-05-09T06:11:50.339Z,98864.75
2023-05-09T06:13:52.034Z,98864.69
2023-05-09T06:16:04.702Z,98859.09
2023-05-09T06:18:19.389Z,98863.44
2023-05-09T06:20:22.028Z,98862.22
2023-05-09T06:22:23.481Z,98864.63
2023-05-09T06:24:35.302Z,98872.00
2023-05-09T06:26:38.430Z,98858.94
2023-05-09T06:28:39.914Z,98855.53
2023-05-09T06:30:41.422Z,98851.25
2023-05-09T06:32:43.017Z,98849.44
2023-05-09T06:34:44.474Z,98847.31
2023-05-09T06:36:45.976Z,98845.19
2023-05-09T06:38:47.743Z,98841.09
2023-05-09T06:40:51.641Z,98833.75
2023-05-09T06:42:53.510Z,98835.81
2023-05-09T06:44:55.631Z,98839.00
2023-05-09T06:46:57.102Z,98835.00
2023-05-09T06:48:59.340Z,98829.38
2023-05-09T06:51:00.940Z,98835.97
2023-05-09T06:53:02.538Z,98836.16
2023-05-09T06:55:08.234Z,98828.06
2023-05-09T06:57:09.748Z,98827.47
2023-05-09T06:59:13.819Z,98827.97
2023-05-09T07:01:15.422Z,98819.03
2023-05-09T07:03:22.425Z,98815.13
2023-05-09T07:05:23.937Z,98817.59
2023-05-09T07:07:25.673Z,98813.69
2023-05-09T07:09:28.697Z,98814.22
2023-05-09T07:11:38.089Z,98813.28
2023-05-09T07:13:39.544Z,98806.50
2023-05-09T07:15:42.944Z,98794.19
2023-05-09T07:17:44.906Z,98797.06
2023-05-09T07:19:46.669Z,98801.53
2023-05-09T07:21:48.398Z,98794.94
2023-05-09T07:23:51.715Z,98802.41
2023-05-09T07:25:57.638Z,98793.22
2023-05-09T07:28:02.151Z,98803.13
2023-05-09T07:30:11.847Z,98795.53
2023-05-09T07:32:13.464Z,98801.22
2023-05-09T07:34:16.579Z,98794.75
2023-05-09T07:36:18.216Z,98788.03
2023-05-09T07:38:19.915Z,98786.78
2023-05-09T07:40:21.300Z,98776.34
2023-05-09T07:42:23.114Z,98775.13
2023-05-09T07:44:24.711Z,98783.78
2023-05-09T07:46:29.415Z,98773.91
2023-05-09T07:48:33.694Z,98767.88
2023-05-09T07:50:35.191Z,98771.81
2023-05-09T07:52:39.667Z,98755.75
2023-05-09T07:54:41.308Z,98760.00
2023-05-09T07:56:43.007Z,98747.59
2023-05-09T07:58:44.707Z,98749.03
2023-05-09T08:00:46.161Z,98764.84
2023-05-09T08:02:48.004Z,98753.16
2023-05-09T08:04:49.569Z,98743.44
2023-05-09T08:06:51.246Z,98744.53
2023-05-09T08:08:52.963Z,98734.78
2023-05-09T08:10:54.580Z,98728.16
2023-05-09T08:12:56.818Z,98735.44
2023-05-09T08:15:01.408Z,98731.59
2023-05-09T08:17:05.139Z,98728.53
2023-05-09T08:19:06.623Z,98730.59
2023-05-09T08:21:10.873Z,98727.84
2023-05-09T08:23:12.421Z,98725.94
2023-05-09T08:25:16.745Z,98715.16
2023-05-09T08:27:20.702Z,98720.44
2023-05-09T08:29:22.226Z,98724.09
2023-05-09T08:31:27.226Z,98720.16
2023-05-09T08:33:28.684Z,98713.44
2023-05-09T08:35:30.322Z,98708.66
2023-05-09T08:37:32.384Z,98706.25
2023-05-09T08:39:37.461Z,98709.50
2023-05-09T08:41:39.626Z,98698.34
2023-05-09T08:43:41.801Z,98699.94
2023-05-09T08:45:50.118Z,98694.34
2023-05-09T08:47:55.924Z,98689.88
2023-05-09T08:49:57.670Z,98685.91
2023-05-09T08:52:05.207Z,98677.44
2023-05-09T08:54:11.222Z,98675.78
2023-05-09T08:56:13.050Z,98671.75
2023-05-09T08:58:19.591Z,98663.66
2023-05-09T09:00:21.811Z,98665.97
2023-05-09T09:02:23.534Z,98663.44
2023-05-09T09:04:24.973Z,98668.97
2023-05-09T09:06:29.858Z,98663.28
2023-05-09T09:08:31.524Z,98653.50
2023-05-09T09:10:34.419Z,98644.91
2023-05-09T09:12:37.467Z,98657.59
2023-05-09T09:14:46.343Z,98651.06
2023-05-09T09:16:49.870Z,98660.53
2023-05-09T09:18:58.504Z,98649.56
2023-05-09T09:21:06.810Z,98645.81
2023-05-09T09:23:12.388Z,98646.91
2023-05-09T09:25:13.906Z,98645.50
2023-05-09T09:27:18.912Z,98645.72
2023-05-09T09:29:21.173Z,98637.88
2023-05-09T09:31:30.290Z,98635.69
2023-05-09T09:33:32.065Z,98641.50
2023-05-09T09:35:39.141Z,98618.00
2023-05-09T09:37:42.747Z,98622.19
2023-05-09T09:39:57.838Z,98621.97
2023-05-09T09:42:10.420Z,98605.69
2023-05-09T09:44:17.446Z,98601.81
2023-05-09T09:46:19.441Z,98599.13
2023-05-09T09:48:25.682Z,98588.38
2023-05-09T09:50:27.370Z,98593.69
2023-05-09T09:52:28.877Z,98591.75
2023-05-09T09:54:33.875Z,98591.47
2023-05-09T09:56:42.905Z,98592.72
2023-05-09T09:58:47.581Z,98600.00
2023-05-09T10:01:05.046Z,98589.63
2023-05-09T10:03:14.540Z,98580.84
2023-05-09T10:05:28.071Z,98571.31
2023-05-09T10:07:33.987Z,98573.81
2023-05-09T10:09:37.956Z,98578.69
2023-05-09T10:11:48.814Z,98574.75
2023-05-09T10:13:50.615Z,98568.44
2023-05-09T10:15:54.152Z,98567.28
2023-05-09T10:18:01.693Z,98556.97
2023-05-09T10:20:05.971Z,98558.22
2023-05-09T10:22:12.854Z,98554.72
2023-05-09T10:24:16.492Z,98545.53
2023-05-09T10:26:27.704Z,98544.84
2023-05-09T10:28:32.729Z,98542.53
2023-05-09T10:30:40.418Z,98548.22
2023-05-09T10:32:48.467Z,98530.16
2023-05-09T10:34:54.808Z,98530.63
2023-05-09T10:36:57.893Z,98533.88
2023-05-09T10:39:01.150Z,98517.47
2023-05-09T10:41:08.914Z,98513.13
2023-05-09T10:43:10.708Z,98523.28
2023-05-09T10:45:13.398Z,98509.25
2023-05-09T10:47:15.912Z,98503.69
2023-05-09T10:49:20.956Z,98504.94
2023-05-09T10:51:24.592Z,98496.94
2023-05-09T10:53:46.018Z,98480.88
2023-05-09T10:55:55.509Z,98481.31
2023-05-09T10:58:07.192Z,98483.81
2023-05-09T11:00:10.205Z,98470.53
2023-05-09T11:02:14.745Z,98464.53
2023-05-09T11:04:17.356Z,98456.84
2023-05-09T11:06:52.158Z,98454.84
2023-05-09T11:08:54.200Z,98444.34
2023-05-09T11:10:57.292Z,98442.34
2023-05-09T11:13:02.407Z,98443.16
2023-05-09T11:15:07.959Z,98442.75
2023-05-09T11:17:28.907Z,98437.56
2023-05-09T11:19:38.203Z,98432.72
2023-05-09T11:21:59.959Z,98424.25
2023-05-09T11:24:16.413Z,98423.47
2023-05-09T11:26:22.491Z,98419.06
2023-05-09T11:28:29.323Z,98425.47
2023-05-09T11:30:40.750Z,98416.66
2023-05-09T11:32:51.068Z,98407.00
2023-05-09T11:34:52.887Z,98401.41
2023-05-09T11:37:09.520Z,98409.03
2023-05-09T11:39:11.578Z,98401.81
2023-05-09T11:41:13.670Z,98404.25
2023-05-09T11:43:17.180Z,98393.81
2023-05-09T11:45:19.149Z,98394.63
2023-05-09T11:47:23.850Z,98391.03
2023-05-09T11:49:28.234Z,98383.78
2023-05-09T11:51:29.884Z,98385.41
2023-05-09T11:53:34.006Z,98371.31
2023-05-09T11:55:38.013Z,98381.78
2023-05-09T11:57:45.309Z,98374.50
2023-05-09T11:59:48.443Z,98363.22
2023-05-09T12:01:49.870Z,98365.22
2023-05-09T12:03:51.849Z,98368.88
2023-05-09T12:05:55.144Z,98366.44
2023-05-09T12:08:02.609Z,98362.00
2023-05-09T12:10:13.198Z,98362.38
2023-05-09T12:12:14.962Z,98349.50
2023-05-09T12:14:37.011Z,98344.66
2023-05-09T12:16:45.347Z,98342.22
2023-05-09T12:18:51.567Z,98338.19
2023-05-09T12:20:53.819Z,98327.75
2023-05-09T12:22:57.054Z,98330.94
2023-05-09T12:25:04.063Z,98324.88
2023-05-09T12:27:09.771Z,98328.13
2023-05-09T12:29:11.577Z,98319.66
2023-05-09T12:31:13.419Z,98310.38
2023-05-09T12:33:18.196Z,98314.00
2023-05-09T12:35:22.232Z,98305.94
2023-05-09T12:37:23.731Z,98300.69
2023-05-09T12:39:26.637Z,98309.16
2023-05-09T12:41:39.138Z,98301.91
2023-05-09T12:43:48.261Z,98296.28
2023-05-09T12:46:20.824Z,98293.06
2023-05-09T12:48:26.307Z,98290.22
2023-05-09T12:50:36.768Z,98284.59
2023-05-09T12:52:50.717Z,98287.00
2023-05-09T12:55:16.268Z,98284.59
2023-05-09T12:57:28.875Z,98282.56
2023-05-09T12:59:33.360Z,98272.09
2023-05-09T13:01:44.078Z,98274.50
2023-05-09T13:03:51.628Z,98269.28
2023-05-09T13:06:01.195Z,98262.41
2023-05-09T13:08:02.876Z,98261.22
2023-05-09T13:10:13.888Z,98249.13
2023-05-09T13:12:20.537Z,98252.31
2023-05-09T13:14:24.034Z,98243.88
2023-05-09T13:16:25.528Z,98249.47
2023-05-09T13:18:30.106Z,98251.09
2023-05-09T13:20:31.722Z,98241.41
2023-05-09T13:22:33.463Z,98232.13
2023-05-09T13:24:35.003Z,98221.63
2023-05-09T13:26:36.722Z,98231.28
2023-05-09T13:28:39.218Z,98225.25
2023-05-09T13:30:48.195Z,98213.56
2023-05-09T13:32:51.356Z,98208.72
2023-05-09T13:34:53.322Z,98214.75
2023-05-09T13:36:57.806Z,98203.88
2023-05-09T13:38:59.287Z,98201.06
2023-05-09T13:41:03.906Z,98199.84
2023-05-09T13:43:05.901Z,98205.06
2023-05-09T13:45:08.487Z,98198.63
2023-05-09T13:47:11.455Z,98210.66
2023-05-09T13:49:13.229Z,98192.56
2023-05-09T13:51:15.381Z,98190.16
2023-05-09T13:53:17.229Z,98183.66
2023-05-09T13:55:21.847Z,98174.81
2023-05-09T13:57:23.352Z,98181.63
2023-05-09T13:59:24.958Z,98182.88
2023-05-09T14:01:26.580Z,98184.06
2023-05-09T14:03:31.994Z,98177.19
2023-05-09T14:05:34.177Z,98169.53
2023-05-09T14:07:36.047Z,98168.31
2023-05-09T14:09:40.007Z,98162.69
2023-05-09T14:11:42.834Z,98161.41
2023-05-09T14:13:44.763Z,98156.97
2023-05-09T14:15:46.418Z,98161.75
2023-05-09T14:17:48.103Z,98159.31
2023-05-09T14:19:50.895Z,98158.09
2023-05-09T14:21:52.648Z,98154.84
2023-05-09T14:23:54.536Z,98154.78
2023-05-09T14:25:56.310Z,98155.16
2023-05-09T14:27:59.413Z,98153.09
2023-05-09T14:30:01.124Z,98140.63
2023-05-09T14:32:02.754Z,98135.41
2023-05-09T14:34:05.293Z,98131.66
2023-05-09T14:36:07.573Z,98133.59
2023-05-09T14:38:09.086Z,98124.28
2023-05-09T14:40:10.831Z,98117.38
2023-05-09T14:42:13.996Z,98117.69
2023-05-09T14:44:17.282Z,98109.56
2023-05-09T14:46:18.983Z,98106.66
2023-05-09T14:48:20.499Z,98105.41
2023-05-09T14:50:22.269Z,98106.50
2023-05-09T14:52:23.979Z,98098.03
2023-05-09T14:54:26.032Z,98101.59
2023-05-09T14:56:31.153Z,98103.09
2023-05-09T14:58:34.340Z,98099.78
2023-05-09T15:00:39.392Z,98082.81
2023-05-09T15:02:42.027Z,98079.94
2023-05-09T15:04:44.985Z,98077.59
2023-05-09T15:06:46.724Z,98070.66
2023-05-09T15:08:51.190Z,98069.78
2023-05-09T15:10:53.230Z,98060.06
2023-05-09T15:12:55.380Z,98065.16
2023-05-09T15:15:13.030Z,98060.66
2023-05-09T15:17:14.696Z,98060.19
2023-05-09T15:19:16.219Z,98060.19
2023-05-09T15:21:17.824Z,98070.88
2023-05-09T15:23:19.433Z,98061.97
2023-05-09T15:25:21.835Z,98057.97
2023-05-09T15:27:23.308Z,98052.72
2023-05-09T15:29:24.961Z,98052.56
2023-05-09T15:31:26.572Z,98050.44
2023-05-09T15:33:28.539Z,98041.22
2023-05-09T15:35:30.093Z,98044.47
2023-05-09T15:37:33.269Z,98039.53
2023-05-09T15:39:36.268Z,98035.75
2023-05-09T15:41:37.904Z,98040.44
2023-05-09T15:43:39.427Z,98035.53
2023-05-09T15:45:45.711Z,98038.22
2023-05-09T15:47:47.654Z,98045.69
2023-05-09T15:49:49.174Z,98038.44
2023-05-09T15:51:50.661Z,98030.41
2023-05-09T15:53:52.152Z,98029.91
2023-05-09T15:55:56.998Z,98027.88
2023-05-09T15:57:58.684Z,98033.44
2023-05-09T16:00:00.395Z,98022.16
2023-05-09T16:02:02.425Z,98024.88
2023-05-09T16:04:05.268Z,98018.50
2023-05-09T16:06:07.255Z,98015.63
2023-05-09T16:08:08.726Z,98025.19
2023-05-09T16:10:10.485Z,98018.00
2023-05-09T16:12:12.729Z,98009.97
2023-05-09T16:14:14.380Z,98008.38
2023-05-09T16:16:18.780Z,98001.88
2023-05-09T16:18:20.326Z,98001.81
2023-05-09T16:20:21.871Z,97998.94
2023-05-09T16:22:23.472Z,98002.94
2023-05-09T16:24:25.235Z,97995.72
2023-05-09T16:26:29.957Z,98004.03
2023-05-09T16:28:31.865Z,97989.59
2023-05-09T16:30:36.083Z,97995.94
2023-05-09T16:32:39.430Z,97989.50
2023-05-09T16:34:41.074Z,97993.03
2023-05-09T16:36:44.086Z,97989.38
2023-05-09T16:38:46.022Z,97982.91
2023-05-09T16:40:49.917Z,97983.63
2023-05-09T16:42:51.416Z,97976.00
2023-05-09T16:44:52.908Z,97971.50
2023-05-09T16:46:54.501Z,97967.84
2023-05-09T16:48:58.409Z,97974.94
2023-05-09T16:51:00.032Z,97962.06
2023-05-09T16:53:02.004Z,97961.19
2023-05-09T16:55:04.208Z,97965.53
2023-05-09T16:57:05.879Z,97961.03
2023-05-09T16:59:07.497Z,97958.16
2023-05-09T17:01:09.548Z,97955.28
2023-05-09T17:03:11.063Z,97948.84
2023-05-09T17:05:12.652Z,97950.78
2023-05-09T17:07:17.647Z,97945.91
2023-05-09T17:09:19.345Z,97940.63
2023-05-09T17:11:21.573Z,97932.53
2023-05-09T17:13:23.344Z,97930.47
2023-05-09T17:15:28.062Z,97933.66
2023-05-09T17:17:29.521Z,97926.75
2023-05-09T17:19:32.626Z,97926.31
2023-05-09T17:21:39.788Z,97922.25
2023-05-09T17:23:41.492Z,97921.38
2023-05-09T17:25:43.511Z,97922.13
2023-05-09T17:27:45.430Z,97914.09
2023-05-09T17:30:02.237Z,97906.81
2023-05-09T17:32:06.229Z,97915.59
2023-05-09T17:34:07.735Z,97909.88
2023-05-09T17:36:09.478Z,97915.38
2023-05-09T17:38:11.100Z,97911.34
2023-05-09T17:40:14.491Z,97906.88
2023-05-09T17:42:19.172Z,97908.06
2023-05-09T17:44:21.124Z,97915.19
2023-05-09T17:46:27.642Z,97908.72
2023-05-09T17:48:29.257Z,97911.06
2023-05-09T17:50:31.288Z,97908.19
2023-05-09T17:52:33.688Z,97906.94
2023-05-09T17:54:36.640Z,97903.28
2023-05-09T17:56:38.150Z,97903.19
2023-05-09T17:58:39.851Z,97895.91
2023-05-09T18:00:41.652Z,97892.69
2023-05-09T18:02:43.725Z,97897.00
2023-05-09T18:04:46.312Z,97893.84
2023-05-09T18:06:49.887Z,97896.22
2023-05-09T18:08:51.736Z,97890.19
2023-05-09T18:10:56.568Z,97895.75
2023-05-09T18:12:58.160Z,97890.94
2023-05-09T18:14:59.973Z,97894.06
2023-05-09T18:17:01.691Z,97892.81
2023-05-09T18:19:03.218Z,97886.81
2023-05-09T18:21:05.395Z,97887.97
2023-05-09T18:23:07.749Z,97885.56
2023-05-09T18:25:09.852Z,97880.69
2023-05-09T18:27:11.822Z,97882.69
2023-05-09T18:29:18.509Z,97881.81
2023-05-09T18:31:20.100Z,97880.91
2023-05-09T18:33:26.626Z,97883.25
2023-05-09T18:35:28.580Z,97883.19
2023-05-09T18:37:32.517Z,97877.91
2023-05-09T18:39:34.040Z,97877.44
2023-05-09T18:41:35.646Z,97870.13
2023-05-09T18:43:42.018Z,97874.03
2023-05-09T18:45:44.970Z,97874.31
2023-05-09T18:47:47.581Z,97873.06
2023-05-09T18:49:49.474Z,97879.34
2023-05-09T18:51:51.200Z,97888.00
2023-05-09T18:53:53.409Z,97885.06
2023-05-09T18:55:56.389Z,97885.78
2023-05-09T18:57:58.345Z,97877.69
2023-05-09T18:59:59.892Z,97884.72
2023-05-09T19:02:04.517Z,97888.94
2023-05-09T19:04:06.992Z,97880.84
2023-05-09T19:06:10.551Z,97878.34
2023-05-09T19:08:11.970Z,97887.34
2023-05-09T19:10:14.846Z,97888.66
2023-05-09T19:12:19.590Z,97881.38
2023-05-09T19:14:22.335Z,97890.81
2023-05-09T19:16:24.904Z,97891.09
2023-05-09T19:18:26.831Z,97889.72
2023-05-09T19:20:29.990Z,97893.59
2023-05-09T19:22:45.403Z,97893.84
2023-05-09T19:24:47.432Z,97896.09
2023-05-09T19:26:49.682Z,97897.97
2023-05-09T19:28:51.215Z,97909.38
2023-05-09T19:30:52.784Z,97904.50
2023-05-09T19:32:54.588Z,97911.97
2023-05-09T19:34:58.853Z,97905.47
2023-05-09T19:37:00.651Z,97906.09
2023-05-09T19:39:04.715Z,97913.50
2023-05-09T19:41:06.294Z,97910.63
2023-05-09T19:43:07.828Z,97908.53
2023-05-09T19:45:09.761Z,97910.44
2023-05-09T19:47:11.293Z,97912.28
2023-05-09T19:49:17.154Z,97910.56
2023-05-09T19:51:19.342Z,97910.44
2023-05-09T19:53:20.835Z,97912.31
2023-05-09T19:55:22.321Z,97916.50
2023-05-09T19:57:23.801Z,97913.63
2023-05-09T19:59:29.102Z,97905.53
2023-05-09T20:01:30.712Z,97909.84
2023-05-09T20:03:34.554Z,97902.53
2023-05-09T20:05:36.246Z,97912.75
2023-05-09T20:07:37.951Z,97911.47
2023-05-09T20:09:39.674Z,97911.50
2023-05-09T20:11:41.320Z,97913.22
2023-05-09T20:13:45.103Z,97914.97
2023-05-09T20:15:47.307Z,97922.03
2023-05-09T20:17:49.029Z,97917.16
2023-05-09T20:19:50.734Z,97912.66
2023-05-09T20:21:52.376Z,97918.09
2023-05-09T20:23:57.033Z,97916.81
2023-05-09T20:25:58.946Z,97918.31
2023-05-09T20:28:00.779Z,97921.00
2023-05-09T20:30:04.110Z,97921.34
2023-05-09T20:32:05.980Z,97921.22
2023-05-09T20:34:10.601Z,97922.25
2023-05-09T20:36:12.052Z,97912.19
2023-05-09T20:38:13.518Z,97911.72
2023-05-09T20:40:15.219Z,97915.19
2023-05-09T20:42:17.407Z,97904.28
2023-05-09T20:44:19.314Z,97909.41
2023-05-09T20:46:20.821Z,97906.84
2023-05-09T20:48:23.527Z,97901.66
2023-05-09T20:50:25.334Z,97905.44
2023-05-09T20:52:29.048Z,97904.84
2023-05-09T20:54:31.006Z,97896.84
2023-05-09T20:56:35.153Z,97901.47
2023-05-09T20:58:39.405Z,97900.53
2023-05-09T21:00:42.795Z,97904.00
2023-05-09T21:02:44.538Z,97901.09
2023-05-09T21:04:46.152Z,97897.03
2023-05-09T21:06:47.885Z,97896.13
2023-05-09T21:08:49.332Z,97896.81
2023-05-09T21:10:53.925Z,97897.47
2023-05-09T21:12:59.257Z,97892.59
2023-05-09T21:15:05.673Z,97895.59
2023-05-09T21:17:07.310Z,97903.47
2023-05-09T21:19:08.898Z,97914.44
2023-05-09T21:21:10.654Z,97923.13
2023-05-09T21:23:12.195Z,97942.09
2023-05-09T21:25:13.805Z,97944.72
2023-05-09T21:27:15.529Z,97950.63
2023-05-09T21:29:17.009Z,97952.94
2023-05-09T21:31:18.582Z,97949.66
2023-05-09T21:33:20.685Z,97955.22
2023-05-09T21:35:22.316Z,97966.66
2023-05-09T21:37:23.867Z,97967.81
2023-05-09T21:39:25.689Z,97970.13
2023-05-09T21:41:32.323Z,97963.44
2023-05-09T21:43:33.802Z,97960.19
2023-05-09T21:45:35.308Z,97966.53
2023-05-09T21:47:41.749Z,97964.91
2023-05-09T21:49:43.303Z,97958.91
2023-05-09T21:51:44.890Z,97961.69
2023-05-09T21:53:46.426Z,97958.09
2023-05-09T21:55:48.056Z,97958.41
2023-05-09T21:57:49.723Z,97955.97
2023-05-09T21:59:51.393Z,97953.88
2023-05-09T22:01:52.984Z,97952.25
2023-05-09T22:03:56.804Z,97944.22
2023-05-09T22:05:58.348Z,97938.69
2023-05-09T22:07:59.928Z,97939.38
2023-05-09T22:10:01.579Z,97942.47
2023-05-09T22:12:03.207Z,97940.84
2023-05-09T22:14:10.122Z,97942.34
2023-05-09T22:16:11.799Z,97948.56
2023-05-09T22:18:14.696Z,97948.91
2023-05-09T22:20:18.541Z,97942.53
2023-05-09T22:22:21.258Z,97948.44
2023-05-09T22:24:22.687Z,97932.81
2023-05-09T22:26:24.258Z,97942.28
2023-05-09T22:28:25.861Z,97937.41
2023-05-09T22:30:27.767Z,97931.38
2023-05-09T22:32:29.448Z,97940.84
2023-05-09T22:34:31.099Z,97933.22
2023-05-09T22:36:33.298Z,97929.63
2023-05-09T22:38:35.009Z,97923.25
2023-05-09T22:40:42.011Z,97921.50
2023-05-09T22:42:43.996Z,97919.06
2023-05-09T22:44:47.131Z,97920.22
2023-05-09T22:46:48.664Z,97919.41
2023-05-09T22:48:50.183Z,97912.56
2023-05-09T22:50:51.961Z,97918.78
2023-05-09T22:52:53.450Z,97918.31
2023-05-09T22:54:54.951Z,97917.84
2023-05-09T22:56:56.428Z,97909.06
2023-05-09T22:59:01.431Z,97911.00
2023-05-09T23:01:02.952Z,97909.72
2023-05-09T23:03:05.162Z,97906.50
2023-05-09T23:05:08.664Z,97900.13
2023-05-09T23:07:12.703Z,97900.78
2023-05-09T23:09:14.381Z,97898.38
2023-05-09T23:11:15.862Z,97900.16
2023-05-09T23:13:17.671Z,97902.63
2023-05-09T23:15:19.228Z,97894.63
2023-05-09T23:17:21.296Z,97891.84
2023-05-09T23:19:22.977Z,97894.16
2023-05-09T23:21:24.485Z,97892.03
2023-05-09T23:23:26.138Z,97890.91
2023-05-09T23:25:27.576Z,97895.63
2023-05-09T23:27:31.151Z,97894.81
2023-05-09T23:29:33.170Z,97887.66
2023-05-09T23:31:34.858Z,97888.00
2023-05-09T23:33:36.432Z,97888.34
2023-05-09T23:35:37.817Z,97890.63
2023-05-09T23:37:39.279Z,97891.78
2023-05-09T23:39:43.152Z,97888.19
2023-05-09T23:41:44.696Z,97883.81
2023-05-09T23:43:46.187Z,97882.16
2023-05-09T23:45:47.676Z,97875.81
2023-05-09T23:47:49.363Z,97875.31
2023-05-09T23:49:50.967Z,97875.31
2023-05-09T23:51:52.554Z,97871.72
2023-05-09T23:53:54.128Z,97880.03
2023-05-09T23:55:55.626Z,97887.41
2023-05-09T23:57:57.667Z,97889.00
